Time;durP1;ratioP1;P1;durP2;ratioP2;P2;SDS_P1;SDS_P2;PMS_P1;PMS_P2;Temp;Humidity;BMP_temperature;BMP_pressure;BME280_temperature;BME280_humidity;BME280_pressure;Samples;Min_cycle;Max_cycle;Signal;HPM_P1;HPM_P2
2022/11/01 00:02:39;;;;;;;0.52;0.43;;;;;;;19.25;62.42;96627.41;10552113;28;20027;-29
2022/11/01 00:07:39;;;;;;;0.70;0.50;;;;;;;19.18;62.31;96620.66;10558142;28;20062;-29
2022/11/01 00:12:40;;;;;;;0.60;0.50;;;;;;;19.23;62.05;96635.03;10565666;28;20036;-30
2022/11/01 00:17:40;;;;;;;0.68;0.68;;;;;;;19.24;62.10;96636.72;10560240;28;20051;-28
2022/11/01 00:22:41;;;;;;;0.90;0.53;;;;;;;19.21;62.17;96618.13;10560126;28;20059;-28
2022/11/01 00:27:41;;;;;;;0.60;0.43;;;;;;;19.23;61.90;96629.97;10569951;28;20447;-28
2022/11/01 00:32:41;;;;;;;2.63;0.57;;;;;;;19.33;64.73;96618.06;10560624;28;20032;-28
2022/11/01 00:37:42;;;;;;;0.68;0.45;;;;;;;19.37;64.63;96617.19;10564780;28;20297;-29
2022/11/01 00:42:42;;;;;;;0.45;0.40;;;;;;;19.39;63.42;96635.78;10568243;28;20374;-29
2022/11/01 00:47:45;;;;;;;0.20;0.20;;;;;;;19.29;62.39;96644.31;10562049;28;20027;-28
2022/11/01 00:52:46;;;;;;;0.75;0.60;;;;;;;19.25;62.39;96633.31;10568615;28;20285;-28
2022/11/01 00:57:46;;;;;;;1.40;1.00;;;;;;;19.25;62.72;96662.97;10564593;28;20157;-29
2022/11/01 01:02:47;;;;;;;0.40;0.40;;;;;;;19.21;62.49;96687.50;10561163;28;20035;-29
2022/11/01 01:07:47;;;;;;;0.55;0.50;;;;;;;19.25;62.24;96647.72;10563540;28;20285;-29
2022/11/01 01:12:47;;;;;;;0.47;0.40;;;;;;;19.25;62.28;96647.72;10569524;28;20024;-30
2022/11/01 01:17:48;;;;;;;0.67;0.40;;;;;;;19.23;62.19;96619.81;10564490;28;20024;-29
2022/11/01 01:22:48;;;;;;;0.65;0.60;;;;;;;19.18;62.18;96605.41;10560676;28;20035;-30
2022/11/01 01:27:49;;;;;;;0.70;0.32;;;;;;;19.23;61.99;96624.03;10565433;28;20029;-29
2022/11/01 01:32:49;;;;;;;0.60;0.60;;;;;;;19.24;62.27;96636.72;10562138;28;20019;-28
2022/11/01 01:37:50;;;;;;;0.45;0.40;;;;;;;19.36;64.48;96677.28;10563076;28;20858;-28
2022/11/01 01:42:50;;;;;;;0.70;0.50;;;;;;;19.42;64.24;96709.44;10562300;28;20036;-29
2022/11/01 01:47:53;;;;;;;0.70;0.50;;;;;;;19.38;62.98;96707.72;10567532;28;20035;-29
2022/11/01 01:52:59;;;;;;;0.65;0.50;;;;;;;19.26;62.40;96702.72;10560583;28;20289;-28
2022/11/01 01:58:00;;;;;;;0.40;0.40;;;;;;;19.26;62.55;96735.72;10561846;28;20050;-29
2022/11/01 02:03:00;;;;;;;0.80;0.60;;;;;;;19.26;62.60;96756.03;10561009;28;20050;-28
2022/11/01 02:08:03;;;;;;;0.60;0.50;;;;;;;19.22;62.37;96769.56;10562181;28;20040;-29
2022/11/01 02:13:10;;;;;;;0.38;0.35;;;;;;;19.27;62.34;96775.47;10566114;28;20019;-29
2022/11/01 02:18:40;;;;;;;0.65;0.60;;;;;;;19.26;62.33;96771.25;10562827;28;20027;-29
2022/11/01 02:24:28;;;;;;;0.60;0.60;;;;;;;19.25;62.23;96774.63;10519709;28;20043;-28
2022/11/01 02:29:47;;;;;;;0.43;0.43;;;;;;;19.25;62.62;96775.47;10469471;28;20116;-29
2022/11/01 02:34:58;;;;;;;0.60;0.60;;;;;;;19.25;62.04;96770.38;10555490;28;20028;-29
2022/11/01 02:40:10;;;;;;;0.60;0.50;;;;;;;19.32;64.78;96781.38;10563498;28;20176;-28
2022/11/01 02:45:38;;;;;;;0.70;0.60;;;;;;;19.39;65.12;96783.03;10552630;28;20028;-31
2022/11/01 02:50:47;;;;;;;0.43;0.43;;;;;;;19.36;63.28;96785.59;10558529;28;20043;-29
2022/11/01 02:55:51;;;;;;;1.17;0.55;;;;;;;19.26;62.57;96776.31;10558347;28;20512;-29
2022/11/01 03:00:52;;;;;;;0.82;0.50;;;;;;;19.27;62.67;96767.84;10561841;28;20074;-29
2022/11/01 03:05:52;;;;;;;0.77;0.50;;;;;;;19.26;62.91;96776.31;10561002;28;20143;-30
2022/11/01 03:11:12;;;;;;;1.13;0.63;;;;;;;19.23;62.48;96761.94;10559354;28;20050;-29
2022/11/01 03:16:21;;;;;;;0.80;0.50;;;;;;;19.24;62.24;96772.94;10561882;28;20055;-30
2022/11/01 03:21:27;;;;;;;0.68;0.50;;;;;;;19.21;62.27;96757.72;10559054;28;20024;-30
2022/11/01 03:26:31;;;;;;;1.10;0.60;;;;;;;19.23;62.39;96776.31;10564054;28;20028;-29
2022/11/01 03:31:35;;;;;;;0.60;0.55;;;;;;;19.16;62.10;96760.22;10557416;28;20043;-29
2022/11/01 03:36:45;;;;;;;0.52;0.50;;;;;;;19.23;62.14;96771.22;10552988;28;20044;-29
2022/11/01 03:41:50;;;;;;;0.50;0.50;;;;;;;19.28;63.70;96784.78;10551917;28;20509;-28
2022/11/01 03:46:51;;;;;;;1.05;0.40;;;;;;;19.38;64.77;96799.13;10564040;28;20032;-28
2022/11/01 03:51:51;;;;;;;0.95;0.47;;;;;;;19.42;63.92;96823.69;10558644;28;20385;-28
2022/11/01 03:56:52;;;;;;;0.40;0.40;;;;;;;19.36;63.38;96833.84;10559786;28;20024;-28
2022/11/01 04:01:52;;;;;;;0.93;0.50;;;;;;;19.25;62.48;96838.09;10570028;28;20408;-29
2022/11/01 04:06:52;;;;;;;0.53;0.50;;;;;;;19.27;62.93;96844.00;10567312;28;20038;-29
2022/11/01 04:11:53;;;;;;;0.50;0.50;;;;;;;19.26;63.01;96863.47;10573671;28;20334;-29
2022/11/01 04:22:12;;;;;;;0.40;0.40;;;;;;;19.26;62.92;96888.00;10555819;28;20044;-29
2022/11/01 04:27:12;;;;;;;0.80;0.37;;;;;;;19.24;62.40;96884.63;10561119;28;20479;-29
2022/11/01 04:32:12;;;;;;;0.50;0.50;;;;;;;19.24;62.36;96897.34;10557592;28;20301;-29
2022/11/01 04:37:13;;;;;;;0.90;0.47;;;;;;;19.25;62.34;96899.03;10562432;28;20023;-29
2022/11/01 04:42:13;;;;;;;1.30;0.40;;;;;;;19.25;62.41;96914.25;10564231;28;20034;-29
2022/11/01 04:47:14;;;;;;;0.75;0.50;;;;;;;19.27;64.37;96905.75;10569365;28;20285;-29
2022/11/01 04:52:14;;;;;;;0.60;0.50;;;;;;;19.36;64.78;96889.69;10558608;28;20039;-28
2022/11/01 04:57:24;;;;;;;0.40;0.40;;;;;;;19.36;63.51;96889.69;10567907;28;20289;-29
2022/11/01 05:02:24;;;;;;;0.43;0.43;;;;;;;19.29;63.06;96926.09;10563393;28;20034;-28
2022/11/01 05:07:24;;;;;;;0.20;0.20;;;;;;;19.22;62.55;96932.00;10558429;28;20040;-29
2022/11/01 05:12:25;;;;;;;0.67;0.57;;;;;;;19.23;62.58;96929.47;10564267;28;20070;-29
2022/11/01 05:17:25;;;;;;;0.70;0.70;;;;;;;19.24;62.66;96925.25;10561037;28;20028;-29
2022/11/01 05:22:25;;;;;;;0.37;0.37;;;;;;;19.22;62.31;96927.78;10559434;28;20325;-28
2022/11/01 05:27:26;;;;;;;0.67;0.40;;;;;;;19.22;62.27;96934.53;10567759;28;20032;-29
2022/11/01 05:32:26;;;;;;;0.60;0.50;;;;;;;19.21;62.20;96946.41;10560642;28;20039;-29
2022/11/01 05:37:27;;;;;;;0.40;0.40;;;;;;;19.15;62.25;96920.09;10558404;28;20031;-28
2022/11/01 05:42:27;;;;;;;0.50;0.40;;;;;;;19.20;62.28;96939.63;10566855;28;20035;-29
2022/11/01 05:47:27;;;;;;;0.35;0.32;;;;;;;19.21;62.36;96955.69;10563464;28;20290;-29
2022/11/01 05:52:28;;;;;;;0.57;0.37;;;;;;;19.31;64.80;96934.53;10561497;28;20470;-29
2022/11/01 05:57:28;;;;;;;0.50;0.50;;;;;;;19.37;64.91;96944.69;10561749;28;20024;-29
2022/11/01 06:02:32;;;;;;;0.30;0.30;;;;;;;19.34;63.58;96922.69;10561111;28;20028;-28
2022/11/01 06:07:34;;;;;;;0.40;0.40;;;;;;;19.25;62.56;96932.03;10566912;28;20053;-29
2022/11/01 06:12:34;;;;;;;0.30;0.30;;;;;;;19.21;62.65;96932.84;10561728;28;20028;-29
2022/11/01 06:17:35;;;;;;;0.50;0.30;;;;;;;19.22;62.66;96937.06;10559958;28;20027;-29
2022/11/01 06:22:35;;;;;;;0.57;0.50;;;;;;;19.21;62.69;96955.69;10567128;28;20293;-29
2022/11/01 06:27:36;;;;;;;0.52;0.45;;;;;;;19.18;62.63;96937.91;10561610;28;20066;-30
2022/11/01 06:32:36;;;;;;;0.53;0.33;;;;;;;19.19;62.32;96944.69;10563560;28;20032;-29
2022/11/01 06:37:37;;;;;;;0.98;0.40;;;;;;;19.21;62.37;96943.00;10557874;28;20028;-30
2022/11/01 06:42:38;;;;;;;0.45;0.30;;;;;;;19.17;62.23;96938.75;10561192;28;20111;-29
2022/11/01 06:47:38;;;;;;;0.60;0.40;;;;;;;19.20;62.38;96952.31;10562943;28;20031;-29
2022/11/01 06:52:38;;;;;;;0.40;0.40;;;;;;;19.21;62.31;96955.69;10563851;28;20072;-29
2022/11/01 06:57:39;;;;;;;0.30;0.30;;;;;;;19.28;64.81;96960.78;10562778;28;20103;-28
2022/11/01 07:02:39;;;;;;;0.43;0.40;;;;;;;19.35;64.76;96966.72;10555812;28;20054;-29
2022/11/01 07:07:42;;;;;;;0.23;0.23;;;;;;;19.28;63.54;96962.47;10564403;28;20028;-29
2022/11/01 07:12:43;;;;;;;0.35;0.30;;;;;;;19.25;62.84;96992.94;10552789;28;20482;-28
2022/11/01 07:17:44;;;;;;;0.30;0.23;;;;;;;19.22;62.83;96990.38;10551214;28;20031;-29
2022/11/01 07:22:44;;;;;;;0.30;0.30;;;;;;;19.22;62.99;96982.75;10559523;28;20028;-29
2022/11/01 07:27:45;;;;;;;0.40;0.40;;;;;;;19.22;62.61;96982.75;10558647;28;20758;-29
2022/11/01 07:32:45;;;;;;;0.60;0.50;;;;;;;19.21;62.61;96992.09;10563369;28;20401;-29
2022/11/01 07:37:46;;;;;;;0.40;0.40;;;;;;;19.21;62.65;96996.31;10558003;28;20450;-28
2022/11/01 07:42:46;;;;;;;0.40;0.40;;;;;;;19.19;62.36;96988.69;10564597;28;20124;-29
2022/11/01 07:47:47;;;;;;;0.57;0.30;;;;;;;19.20;62.36;96999.69;10559858;28;20027;-28
2022/11/01 07:52:47;;;;;;;0.50;0.50;;;;;;;19.20;62.61;97002.22;10558158;28;20035;-30
2022/11/01 07:57:47;;;;;;;0.30;0.30;;;;;;;19.14;62.58;96997.09;10561066;28;20080;-28
2022/11/01 08:02:48;;;;;;;0.30;0.30;;;;;;;19.25;64.87;97006.47;10558156;28;20024;-29
2022/11/01 08:07:48;;;;;;;0.52;0.30;;;;;;;19.34;64.89;97010.72;10563467;28;20036;-29
2022/11/01 08:12:49;;;;;;;0.50;0.50;;;;;;;19.35;63.49;97025.94;10559926;28;20044;-29
2022/11/01 08:17:49;;;;;;;0.45;0.40;;;;;;;19.26;62.88;97020.84;10550338;28;20274;-29
2022/11/01 08:22:50;;;;;;;0.37;0.30;;;;;;;19.14;62.49;97007.25;10559027;28;20035;-29
2022/11/01 08:27:51;;;;;;;0.52;0.40;;;;;;;19.19;62.38;97006.44;10559304;28;20107;-28
2022/11/01 08:33:02;;;;;;;0.30;0.22;;;;;;;19.21;62.60;97029.31;10564751;28;20063;-29
2022/11/01 08:38:02;;;;;;;0.20;0.20;;;;;;;19.20;62.58;97041.16;10555928;28;20493;-28
2022/11/01 08:43:03;;;;;;;0.70;0.50;;;;;;;19.20;62.45;97042.84;10554985;28;20049;-29
2022/11/01 08:48:04;;;;;;;0.40;0.40;;;;;;;19.19;62.53;97041.16;10568142;28;20067;-28
2022/11/01 08:53:09;;;;;;;0.40;0.40;;;;;;;19.20;62.51;97053.00;10566855;28;20027;-28
2022/11/01 08:58:10;;;;;;;0.50;0.43;;;;;;;19.20;62.58;97058.06;10567664;28;20505;-28
2022/11/01 09:03:11;;;;;;;0.20;0.20;;;;;;;19.19;62.38;97061.47;10563833;28;20114;-28
2022/11/01 09:08:11;;;;;;;0.40;0.40;;;;;;;19.24;64.56;97053.00;10568838;28;20035;-29
2022/11/01 09:13:11;;;;;;;0.57;0.40;;;;;;;19.33;64.73;97058.09;10564868;28;20031;-29
2022/11/01 09:18:12;;;;;;;0.30;0.30;;;;;;;19.33;63.56;97063.19;10561609;28;20023;-28
2022/11/01 09:23:12;;;;;;;0.30;0.30;;;;;;;19.25;62.85;97053.88;10563701;28;20028;-29
2022/11/01 09:28:13;;;;;;;0.53;0.30;;;;;;;19.19;62.77;97048.75;10559534;28;20043;-29
2022/11/01 09:33:13;;;;;;;0.30;0.30;;;;;;;19.22;62.97;97064.00;10567904;28;20110;-29
2022/11/01 09:38:13;;;;;;;0.50;0.30;;;;;;;19.22;62.77;97069.06;10562924;28;20032;-29
2022/11/01 09:43:19;;;;;;;0.40;0.40;;;;;;;19.20;62.63;97060.59;10560739;28;20341;-29
2022/11/01 09:48:20;;;;;;;0.20;0.20;;;;;;;19.20;62.46;97070.75;10559557;28;20036;-29
2022/11/01 09:53:23;;;;;;;0.45;0.40;;;;;;;19.13;62.43;97059.72;10566805;28;20028;-29
2022/11/01 09:58:27;;;;;;;0.90;0.40;;;;;;;19.18;62.64;97067.34;10563408;28;20066;-28
2022/11/01 10:03:36;;;;;;;0.30;0.20;;;;;;;19.20;62.83;97073.28;10561135;28;20042;-31
2022/11/01 10:08:47;;;;;;;0.55;0.55;;;;;;;19.19;62.40;97069.06;10566110;28;20058;-29
2022/11/01 10:14:14;;;;;;;0.40;0.40;;;;;;;19.26;64.69;97071.63;10560940;28;20028;-28
2022/11/01 10:19:17;;;;;;;0.55;0.40;;;;;;;19.34;64.43;97080.09;10563319;28;20032;-28
2022/11/01 10:24:43;;;;;;;0.30;0.30;;;;;;;19.28;63.32;97081.78;10561024;28;20481;-30
2022/11/01 10:29:54;;;;;;;0.50;0.40;;;;;;;19.19;62.61;97079.22;10549494;28;20058;-29
2022/11/01 10:35:00;;;;;;;0.40;0.40;;;;;;;19.17;62.57;97079.19;10561244;28;20055;-29
2022/11/01 10:40:09;;;;;;;0.52;0.40;;;;;;;19.18;62.39;97085.13;10561327;28;20035;-29
2022/11/01 10:45:15;;;;;;;0.40;0.40;;;;;;;19.19;62.64;97086.84;10553723;28;20063;-29
2022/11/01 10:50:21;;;;;;;0.28;0.28;;;;;;;19.16;62.41;97079.19;10563120;28;20031;-29
2022/11/01 10:55:44;;;;;;;0.20;0.20;;;;;;;19.18;62.49;97082.56;10564686;28;20031;-30
2022/11/01 11:00:45;;;;;;;0.43;0.43;;;;;;;19.14;62.28;97074.09;10553710;28;20556;-29
2022/11/01 11:05:48;;;;;;;0.20;0.20;;;;;;;19.17;62.46;97073.28;10562373;28;20032;-30
2022/11/01 11:10:49;;;;;;;0.35;0.35;;;;;;;19.17;62.48;97065.66;10541584;28;20440;-30
2022/11/01 11:15:54;;;;;;;0.43;0.43;;;;;;;19.19;64.34;97064.00;10559644;28;20051;-28
2022/11/01 11:21:01;;;;;;;0.30;0.30;;;;;;;19.30;64.62;97057.25;10557200;28;20093;-28
2022/11/01 11:26:07;;;;;;;0.30;0.30;;;;;;;19.34;63.78;97051.34;10558943;28;20036;-29
2022/11/01 11:31:34;;;;;;;;;;;;;;;19.27;63.23;97062.31;10563645;28;20035;-29
2022/11/01 11:36:40;;;;;;;0.63;0.40;;;;;;;19.19;62.82;97069.06;10544683;28;19927;-29
2022/11/01 11:41:43;;;;;;;0.50;0.30;;;;;;;19.20;63.06;97068.22;10563512;28;20118;-28
2022/11/01 11:46:55;;;;;;;0.32;0.30;;;;;;;19.18;62.72;97068.16;10555664;28;20061;-29
2022/11/01 11:51:57;;;;;;;0.40;0.40;;;;;;;19.18;62.81;97069.88;10557397;28;20079;-29
2022/11/01 11:57:28;;;;;;;0.82;0.40;;;;;;;19.19;62.69;97069.06;10560867;28;20405;-29
2022/11/01 12:02:34;;;;;;;0.40;0.30;;;;;;;19.13;62.44;97053.78;10562679;28;20493;-29
2022/11/01 12:07:47;;;;;;;0.40;0.40;;;;;;;19.14;62.69;97060.56;10555546;28;20031;-28
2022/11/01 12:12:51;;;;;;;1.10;0.40;;;;;;;19.17;62.54;97073.28;10555809;28;20065;-29
2022/11/01 12:17:52;;;;;;;0.52;0.52;;;;;;;19.17;62.67;97065.66;10558836;28;20120;-29
2022/11/01 12:23:05;;;;;;;0.40;0.40;;;;;;;19.26;64.43;97073.31;10567372;28;20558;-28
2022/11/01 12:28:23;;;;;;;0.30;0.30;;;;;;;19.34;64.69;97071.66;10564157;28;20035;-29
2022/11/01 12:33:30;;;;;;;0.47;0.30;;;;;;;19.30;63.50;97062.31;10569067;28;20028;-30
2022/11/01 12:38:42;;;;;;;0.32;0.30;;;;;;;19.21;62.89;97062.31;10569467;28;20536;-31
2022/11/01 12:43:49;;;;;;;0.30;0.30;;;;;;;19.20;63.05;97066.53;10561472;28;20047;-30
2022/11/01 12:48:56;;;;;;;0.30;0.30;;;;;;;19.14;62.98;97056.34;10570215;28;20560;-28
2022/11/01 12:54:11;;;;;;;0.32;0.28;;;;;;;19.19;62.93;97069.06;10565185;28;20031;-29
2022/11/01 12:59:15;;;;;;;0.43;0.30;;;;;;;19.18;62.65;97058.03;10565788;28;20055;-29
2022/11/01 13:04:26;;;;;;;0.30;0.28;;;;;;;19.05;62.65;97040.22;10565431;28;20028;-30
2022/11/01 13:09:51;;;;;;;0.25;0.20;;;;;;;19.16;62.67;97063.97;10568157;28;20036;-29
2022/11/01 13:14:52;;;;;;;0.35;0.30;;;;;;;19.17;62.94;97070.72;10564857;28;20042;-28
2022/11/01 13:20:17;;;;;;;0.28;0.28;;;;;;;19.17;63.09;97076.63;10560428;28;20567;-29
2022/11/01 13:25:40;;;;;;;0.52;0.30;;;;;;;19.19;64.37;97074.16;10567014;28;20031;-29
2022/11/01 13:30:51;;;;;;;0.30;0.30;;;;;;;19.30;64.77;97077.56;10555173;28;20051;-28
2022/11/01 13:36:16;;;;;;;0.22;0.20;;;;;;;19.34;63.83;97075.03;10545923;28;20040;-28
2022/11/01 13:41:29;;;;;;;0.22;0.20;;;;;;;19.29;63.62;97065.72;10568607;28;20058;-29
2022/11/01 13:46:36;;;;;;;0.55;0.40;;;;;;;19.18;62.73;97067.34;10564157;28;20036;-29
2022/11/01 13:51:45;;;;;;;0.43;0.30;;;;;;;19.17;62.80;97070.72;10560097;28;20046;-29
2022/11/01 13:56:56;;;;;;;0.20;0.20;;;;;;;19.18;62.84;97062.28;10557728;28;20514;-28
2022/11/01 14:02:35;;;;;;;0.30;0.30;;;;;;;19.16;62.73;97058.88;10560726;28;20036;-30
2022/11/01 14:07:57;;;;;;;0.30;0.30;;;;;;;19.15;62.58;97069.84;10548651;28;20051;-31
2022/11/01 14:13:06;;;;;;;0.90;0.57;;;;;;;19.16;62.58;97074.13;10555026;28;20040;-28
2022/11/01 14:18:09;;;;;;;0.30;0.30;;;;;;;19.15;62.73;97083.41;10565562;28;20509;-29
2022/11/01 14:23:42;;;;;;;0.30;0.30;;;;;;;19.15;62.80;97080.00;10560391;28;20034;-28
2022/11/01 14:28:46;;;;;;;0.28;0.20;;;;;;;19.15;62.81;97074.94;10537187;28;20039;-28
2022/11/01 14:33:47;;;;;;;0.35;0.30;;;;;;;19.25;65.05;97071.63;10560811;28;20032;-29
2022/11/01 14:38:52;;;;;;;0.10;0.10;;;;;;;19.32;64.70;97083.47;10558256;28;20545;-28
2022/11/01 14:44:00;;;;;;;0.38;0.28;;;;;;;19.28;63.10;97074.16;10561718;28;20079;-28
2022/11/01 14:49:19;;;;;;;0.38;0.30;;;;;;;19.15;62.75;97072.38;10558475;28;20444;-30
2022/11/01 14:54:38;;;;;;;0.95;0.40;;;;;;;19.16;62.77;97072.41;10561327;28;20065;-28
2022/11/01 14:59:38;;;;;;;0.30;0.20;;;;;;;19.16;62.94;97084.28;10554728;28;20466;-28
2022/11/01 15:04:42;;;;;;;0.10;0.10;;;;;;;19.15;62.68;97092.69;10552982;28;20063;-28
2022/11/01 15:09:55;;;;;;;0.20;0.20;;;;;;;19.14;62.79;97088.47;10533238;28;20062;-30
2022/11/01 15:14:57;;;;;;;0.40;0.30;;;;;;;19.14;62.58;97091.00;10562042;28;20073;-30
2022/11/01 15:20:00;;;;;;;0.10;0.10;;;;;;;19.14;62.21;97106.22;10560890;28;20043;-28
2022/11/01 15:25:04;;;;;;;0.20;0.15;;;;;;;19.14;62.54;97106.22;10558145;28;20032;-29
2022/11/01 15:30:05;;;;;;;0.20;0.20;;;;;;;19.12;62.64;97108.78;10562834;28;20023;-28
2022/11/01 15:35:24;;;;;;;0.30;0.30;;;;;;;19.18;64.33;97113.88;10551899;28;20023;-29
2022/11/01 15:40:35;;;;;;;0.20;0.20;;;;;;;19.28;64.93;97127.47;10561553;28;20054;-29
2022/11/01 15:45:37;;;;;;;0.63;0.57;;;;;;;19.33;63.87;97130.91;10549483;28;20028;-29
2022/11/01 15:50:44;;;;;;;0.30;0.30;;;;;;;19.26;63.12;97141.88;10559866;28;20035;-29
2022/11/01 15:55:52;;;;;;;0.77;0.40;;;;;;;19.15;62.74;97139.25;10566012;28;20022;-29
2022/11/01 16:01:02;;;;;;;0.40;0.20;;;;;;;19.17;63.16;97141.81;10571970;28;20378;-28
2022/11/01 16:06:12;;;;;;;0.50;0.50;;;;;;;19.13;62.76;97137.53;10576436;28;20550;-29
2022/11/01 16:11:22;;;;;;;0.25;0.20;;;;;;;19.16;62.78;97140.09;10571726;28;20035;-29
2022/11/01 16:16:23;;;;;;;0.32;0.20;;;;;;;19.14;62.52;97132.47;10570793;28;20051;-28
2022/11/01 16:21:30;;;;;;;0.60;0.27;;;;;;;19.14;62.41;97136.69;10572170;28;20060;-28
2022/11/01 16:26:30;;;;;;;0.40;0.30;;;;;;;19.14;62.48;97147.72;10576585;28;20295;-29
2022/11/01 16:31:32;;;;;;;0.30;0.30;;;;;;;19.13;62.61;97150.22;10573209;28;20038;-29
2022/11/01 16:36:36;;;;;;;0.43;0.32;;;;;;;19.13;62.44;97151.09;10562377;28;20111;-28
2022/11/01 16:41:37;;;;;;;0.40;0.40;;;;;;;19.18;64.69;97143.50;10575557;28;20123;-29
2022/11/01 16:46:38;;;;;;;0.30;0.30;;;;;;;19.28;64.80;97145.25;10570686;28;20046;-29
2022/11/01 16:51:39;;;;;;;0.13;0.13;;;;;;;19.30;63.84;97158.78;10564495;28;20038;-28
2022/11/01 16:56:44;;;;;;;0.43;0.32;;;;;;;19.24;63.06;97158.78;10572827;28;20040;-29
2022/11/01 17:01:45;;;;;;;0.30;0.30;;;;;;;19.14;62.68;97167.16;10561422;28;20035;-28
2022/11/01 17:06:46;;;;;;;0.38;0.38;;;;;;;19.14;62.76;97177.31;10557836;28;20024;-28
2022/11/01 17:11:49;;;;;;;0.28;0.20;;;;;;;19.13;62.98;97180.69;10565596;28;20181;-28
2022/11/01 17:16:51;;;;;;;0.60;0.40;;;;;;;19.13;62.76;97195.91;10561311;28;20028;-29
2022/11/01 17:21:53;;;;;;;0.45;0.30;;;;;;;19.14;62.34;97192.53;10565578;28;20032;-28
2022/11/01 17:26:57;;;;;;;0.63;0.35;;;;;;;19.13;62.48;97190.84;10562115;28;20409;-29
2022/11/01 17:31:59;;;;;;;0.40;0.35;;;;;;;19.13;62.42;97190.84;10567857;28;20202;-29
2022/11/01 17:37:00;;;;;;;0.50;0.30;;;;;;;19.12;62.63;97195.09;10553363;28;20096;-29
2022/11/01 17:42:00;;;;;;;0.30;0.30;;;;;;;19.13;62.51;97190.84;10546360;28;20535;-29
2022/11/01 17:47:01;;;;;;;0.28;0.28;;;;;;;19.18;64.48;97195.09;10565408;28;20049;-29
2022/11/01 17:52:03;;;;;;;0.40;0.32;;;;;;;19.27;64.56;97201.94;10566062;28;20035;-29
2022/11/01 17:57:03;;;;;;;0.52;0.28;;;;;;;19.27;63.73;97200.25;10562956;28;20469;-28
2022/11/01 18:02:03;;;;;;;0.37;0.30;;;;;;;19.22;63.11;97201.06;10563859;28;20035;-29
2022/11/01 18:07:05;;;;;;;0.10;0.10;;;;;;;19.12;62.63;97210.31;10561419;28;20031;-29
2022/11/01 18:12:15;;;;;;;0.30;0.30;;;;;;;19.08;62.74;97205.22;10560414;28;20058;-29
2022/11/01 18:17:33;;;;;;;0.30;0.30;;;;;;;19.15;62.89;97214.53;10561587;28;20062;-29
2022/11/01 18:22:51;;;;;;;0.28;0.20;;;;;;;19.14;62.53;97207.75;10568561;28;20020;-29
2022/11/01 18:27:56;;;;;;;0.20;0.20;;;;;;;19.11;62.49;97212.81;10557198;28;20042;-29
2022/11/01 18:33:03;;;;;;;0.47;0.43;;;;;;;19.12;62.46;97214.53;10558456;28;20424;-29
2022/11/01 18:38:32;;;;;;;0.40;0.30;;;;;;;19.11;62.45;97217.91;10553210;28;20036;-29
2022/11/01 18:43:37;;;;;;;0.30;0.30;;;;;;;19.11;62.46;97203.53;10562410;28;20019;-29
2022/11/01 18:48:38;;;;;;;0.30;0.25;;;;;;;19.11;62.37;97202.69;10559303;28;20524;-29
2022/11/01 18:53:38;;;;;;;0.40;0.30;;;;;;;19.12;64.52;97195.09;10562221;28;20031;-28
2022/11/01 18:58:39;;;;;;;0.40;0.40;;;;;;;19.24;64.52;97197.69;10560820;28;20035;-30
2022/11/01 19:03:39;;;;;;;0.30;0.30;;;;;;;19.22;63.74;97196.84;10552516;28;20054;-27
2022/11/01 19:08:39;;;;;;;0.30;0.30;;;;;;;19.11;63.26;97188.31;10559170;28;20038;-28
2022/11/01 19:13:40;;;;;;;0.30;0.30;;;;;;;19.14;62.72;97198.47;10563941;28;20489;-29
2022/11/01 19:18:40;;;;;;;0.20;0.20;;;;;;;19.15;63.89;97204.38;10555593;28;20293;-30
2022/11/01 19:23:45;;;;;;;0.22;0.20;;;;;;;19.13;62.89;97188.28;10557934;28;20043;-28
2022/11/01 19:28:45;;;;;;;0.30;0.30;;;;;;;19.12;62.54;97194.22;10558240;28;20035;-28
2022/11/01 19:33:47;;;;;;;0.30;0.30;;;;;;;19.11;62.57;97203.53;10533708;28;20103;-29
2022/11/01 19:38:48;;;;;;;0.40;0.38;;;;;;;19.06;62.29;97184.03;10555326;28;20023;-28
2022/11/01 19:43:49;;;;;;;0.20;0.20;;;;;;;19.11;62.46;97192.53;10560381;28;20032;-28
2022/11/01 19:48:50;;;;;;;0.65;0.40;;;;;;;19.09;62.43;97189.13;10564337;28;20538;-28
2022/11/01 19:53:52;;;;;;;0.32;0.32;;;;;;;19.01;62.30;97166.25;10558121;28;20107;-29
2022/11/01 19:58:56;;;;;;;1.08;0.50;;;;;;;18.85;60.76;97183.94;10522778;28;20043;-29
2022/11/01 20:04:00;;;;;;;4.63;0.73;;;;;;;19.10;62.42;97184.03;10561433;28;20035;-29
2022/11/01 20:09:10;;;;;;;0.77;0.50;;;;;;;19.14;62.42;97198.47;10537713;28;20405;-28
2022/11/01 20:14:12;;;;;;;7.82;0.90;;;;;;;18.98;63.01;97190.75;10560650;28;20558;-30
2022/11/01 20:19:12;;;;;;;5.72;0.70;;;;;;;19.01;63.12;97200.94;10539471;28;20031;-28
2022/11/01 20:24:14;;;;;;;5.50;0.70;;;;;;;18.95;63.14;97198.34;10544848;28;20039;-30
2022/11/01 20:29:14;;;;;;;3.03;0.73;;;;;;;18.94;62.73;97196.66;10548235;28;20091;-30
2022/11/01 20:34:15;;;;;;;7.38;2.58;;;;;;;18.95;62.71;97206.84;10559313;28;20080;-29
2022/11/01 20:39:15;;;;;;;4.07;0.57;;;;;;;18.94;62.73;97196.66;10563367;28;20051;-29
2022/11/01 20:44:16;;;;;;;3.67;0.50;;;;;;;19.07;62.63;97204.34;10573473;28;20039;-31
2022/11/01 20:49:16;;;;;;;2.65;0.70;;;;;;;19.08;62.06;97217.91;10570016;28;20039;-31
2022/11/01 20:54:16;;;;;;;1.67;0.47;;;;;;;18.96;62.17;97216.13;10569512;28;20032;-31
2022/11/01 20:59:17;;;;;;;3.00;0.47;;;;;;;19.02;61.73;97207.72;10568057;28;20039;-31
2022/11/01 21:04:18;;;;;;;3.50;0.60;;;;;;;19.01;61.72;97226.31;10566999;28;20039;-31
2022/11/01 21:09:38;;;;;;;1.40;0.40;;;;;;;18.96;61.67;97227.97;10557249;28;20050;-31
2022/11/01 21:14:38;;;;;;;8.25;1.45;;;;;;;18.86;61.68;97226.22;10554361;28;20478;-32
2022/11/01 21:19:39;;;;;;;4.50;0.82;;;;;;;18.94;61.64;97232.19;10546122;28;20051;-32
2022/11/01 21:24:44;;;;;;;2.13;0.55;;;;;;;18.81;61.67;97235.47;10551724;28;20028;-31
2022/11/01 21:29:47;;;;;;;3.33;1.00;;;;;;;18.72;59.48;97240.47;10557342;28;20035;-29
2022/11/01 21:34:48;;;;;;;3.08;0.80;;;;;;;18.80;60.44;97241.38;10558514;28;20410;-29
2022/11/01 21:39:59;;;;;;;1.33;0.80;;;;;;;18.97;60.38;97250.81;10564028;28;20343;-29
2022/11/01 21:45:21;;;;;;;2.92;0.68;;;;;;;18.92;60.77;97254.16;10561797;28;20089;-30
2022/11/01 21:50:21;;;;;;;1.02;0.63;;;;;;;18.95;60.47;97259.25;10562049;28;20093;-28
2022/11/01 21:55:22;;;;;;;1.70;0.70;;;;;;;18.94;60.61;97270.25;10565085;28;20143;-30
2022/11/01 22:00:22;;;;;;;1.83;0.60;;;;;;;18.92;60.94;97267.69;10550281;28;20039;-29
2022/11/01 22:05:23;;;;;;;1.27;0.90;;;;;;;18.94;61.06;97275.31;10561137;28;20303;-30
2022/11/01 22:10:23;;;;;;;1.47;1.00;;;;;;;18.91;60.85;97273.59;10559399;28;20034;-29
2022/11/01 22:15:23;;;;;;;1.27;0.87;;;;;;;18.88;60.98;97271.06;10561379;28;20031;-28
2022/11/01 22:20:24;;;;;;;1.77;0.70;;;;;;;18.90;61.27;97279.53;10561684;28;20027;-30
2022/11/01 22:25:24;;;;;;;3.13;0.70;;;;;;;18.92;61.19;97277.00;10566507;28;20028;-29
2022/11/01 22:30:24;;;;;;;1.57;0.60;;;;;;;19.05;62.52;97278.78;10560339;28;20031;-30
2022/11/01 22:35:25;;;;;;;2.83;0.60;;;;;;;19.08;62.93;97291.50;10552068;28;20047;-29
2022/11/01 22:40:25;;;;;;;1.73;0.73;;;;;;;19.10;61.33;97287.28;10565414;28;20024;-29
2022/11/01 22:45:26;;;;;;;0.95;0.55;;;;;;;19.01;61.09;97293.13;10561826;28;20118;-28
2022/11/01 22:50:27;;;;;;;1.30;0.70;;;;;;;18.97;61.09;97293.09;10555267;28;20028;-29
2022/11/01 22:55:29;;;;;;;0.73;0.43;;;;;;;18.95;61.15;97302.38;10563696;28;20489;-28
2022/11/01 23:00:34;;;;;;;1.50;0.50;;;;;;;18.93;61.26;97293.94;10552631;28;20039;-29
2022/11/01 23:05:35;;;;;;;0.65;0.57;;;;;;;18.90;61.33;97293.88;10560801;28;20031;-29
2022/11/01 23:10:36;;;;;;;1.48;0.63;;;;;;;18.92;61.26;97302.38;10560920;28;20435;-29
2022/11/01 23:15:36;;;;;;;0.70;0.50;;;;;;;18.89;61.29;97300.66;10553261;28;20020;-29
2022/11/01 23:20:39;;;;;;;1.30;0.60;;;;;;;18.90;61.25;97309.09;10561260;28;20084;-29
2022/11/01 23:25:39;;;;;;;2.75;1.73;;;;;;;18.92;61.12;97307.47;10558994;28;20301;-28
2022/11/01 23:30:41;;;;;;;0.93;0.40;;;;;;;19.03;63.26;97316.00;10556946;28;20039;-29
2022/11/01 23:35:50;;;;;;;1.83;0.50;;;;;;;19.07;63.18;97316.00;10550192;28;20497;-29
2022/11/01 23:40:53;;;;;;;1.73;0.60;;;;;;;19.06;61.43;97321.06;10562979;28;20101;-28